Time;durP1;ratioP1;P1;durP2;ratioP2;P2;SDS_P1;SDS_P2;PMS_P1;PMS_P2;Temp;Humidity;BMP_temperature;BMP_pressure;BME280_temperature;BME280_humidity;BME280_pressure;Samples;Min_cycle;Max_cycle;Signal;HPM_P1;HPM_P2
2022/10/18 00:01:15;;;;;;;269.05;30.65;;;14.80;99.90;;;;;;5070736;28;20079;-77
2022/10/18 00:03:41;;;;;;;230.45;25.38;;;14.90;99.90;;;;;;5070153;28;20447;-77
2022/10/18 00:06:08;;;;;;;89.93;20.35;;;14.80;99.90;;;;;;5070127;28;20052;-77
2022/10/18 00:08:35;;;;;;;156.43;23.98;;;14.70;99.90;;;;;;5067555;28;20029;-77
2022/10/18 00:11:00;;;;;;;126.82;21.70;;;14.80;99.90;;;;;;5062610;28;20037;-77
2022/10/18 00:13:26;;;;;;;45.28;20.58;;;14.80;99.90;;;;;;5070259;28;20077;-77
2022/10/18 00:15:57;;;;;;;42.53;21.08;;;14.80;99.90;;;;;;5066521;28;20032;-77
2022/10/18 00:18:23;;;;;;;32.03;21.02;;;14.70;99.90;;;;;;5052203;28;20041;-77
2022/10/18 00:21:01;;;;;;;158.05;22.20;;;14.70;99.90;;;;;;5065267;28;22148;-77
2022/10/18 00:23:27;;;;;;;65.82;17.23;;;14.70;99.90;;;;;;5071672;28;20039;-76
2022/10/18 00:26:20;;;;;;;65.13;17.75;;;14.70;99.90;;;;;;5061168;28;20493;-77
2022/10/18 00:28:53;;;;;;;28.17;18.33;;;14.70;99.90;;;;;;5074729;28;20154;-77
2022/10/18 00:31:20;;;;;;;26.52;17.13;;;14.60;99.90;;;;;;5059776;28;20040;-77
2022/10/18 00:33:49;;;;;;;25.77;16.20;;;14.60;99.90;;;;;;5073528;28;20503;-77
2022/10/18 00:36:15;;;;;;;80.32;17.17;;;14.60;99.90;;;;;;5073001;28;20024;-77
2022/10/18 00:38:42;;;;;;;74.30;15.82;;;14.60;99.90;;;;;;5057083;28;20036;-77
2022/10/18 00:41:11;;;;;;;108.95;20.17;;;14.60;99.90;;;;;;5062763;28;20024;-77
2022/10/18 00:43:55;;;;;;;58.80;17.58;;;14.60;99.90;;;;;;5067246;28;20021;-77
2022/10/18 00:46:22;;;;;;;92.50;17.40;;;14.60;99.90;;;;;;5064911;28;20025;-77
2022/10/18 00:48:48;;;;;;;47.03;18.02;;;14.60;99.90;;;;;;5074348;28;20047;-74
2022/10/18 00:51:16;;;;;;;28.08;15.65;;;14.60;99.90;;;;;;5062829;28;20044;-77
2022/10/18 00:53:42;;;;;;;25.70;16.27;;;14.60;99.90;;;;;;5064218;28;20496;-75
2022/10/18 00:56:07;;;;;;;37.10;16.98;;;14.60;99.90;;;;;;5062517;28;20102;-76
2022/10/18 00:58:33;;;;;;;88.18;18.17;;;14.60;99.90;;;;;;5068080;28;20033;-75
2022/10/18 01:00:59;;;;;;;44.67;18.30;;;14.50;99.90;;;;;;5063084;28;20418;-74
2022/10/18 01:03:24;;;;;;;31.58;18.85;;;14.50;99.90;;;;;;5070916;28;20028;-75
2022/10/18 01:05:50;;;;;;;26.40;19.23;;;14.50;99.90;;;;;;5072643;28;20025;-76
2022/10/18 01:08:25;;;;;;;80.15;21.50;;;14.50;99.90;;;;;;5071628;28;20066;-76
2022/10/18 01:11:08;;;;;;;31.98;18.10;;;14.60;99.90;;;;;;5062888;28;20033;-75
2022/10/18 01:13:47;;;;;;;32.25;17.40;;;14.50;99.90;;;;;;5081472;28;20754;-75
2022/10/18 01:16:40;;;;;;;44.10;17.65;;;14.50;99.90;;;;;;5063582;28;20660;-75
2022/10/18 01:19:27;;;;;;;27.17;17.45;;;14.50;99.90;;;;;;5062274;28;20025;-75
2022/10/18 01:22:10;;;;;;;27.05;15.95;;;14.50;99.90;;;;;;5072563;28;20017;-75
2022/10/18 01:24:53;;;;;;;111.78;20.95;;;14.50;99.90;;;;;;5064394;28;20032;-76
2022/10/18 01:27:24;;;;;;;57.38;16.88;;;14.50;99.90;;;;;;5066143;28;20127;-75
2022/10/18 01:30:14;;;;;;;116.73;18.43;;;14.40;99.90;;;;;;5057330;28;20045;-75
2022/10/18 01:32:46;;;;;;;141.43;19.98;;;14.50;99.90;;;;;;5056835;28;20306;-76
2022/10/18 01:35:16;;;;;;;58.67;14.13;;;14.40;99.90;;;;;;5055762;28;20376;-75
2022/10/18 01:37:46;;;;;;;67.10;13.90;;;14.50;99.90;;;;;;5053652;28;20107;-75
2022/10/18 01:40:16;;;;;;;52.38;12.63;;;14.50;99.90;;;;;;5073220;28;20042;-75
2022/10/18 01:42:44;;;;;;;38.30;14.55;;;14.50;99.90;;;;;;5066104;28;20070;-76
2022/10/18 01:45:12;;;;;;;27.45;14.60;;;14.50;99.90;;;;;;5063840;28;20022;-75
2022/10/18 01:47:38;;;;;;;27.27;13.43;;;14.50;99.90;;;;;;5058224;28;20417;-75
2022/10/18 01:50:05;;;;;;;25.92;14.32;;;14.50;99.90;;;;;;5068961;28;20082;-75
2022/10/18 01:52:31;;;;;;;45.58;16.20;;;14.60;99.90;;;;;;5058004;28;20056;-75
2022/10/18 01:54:58;;;;;;;31.10;17.60;;;14.60;99.90;;;;;;5060606;28;20063;-75
2022/10/18 01:57:54;;;;;;;22.25;16.58;;;14.60;99.90;;;;;;5062549;28;20033;-76
2022/10/18 02:00:30;;;;;;;26.20;16.90;;;14.70;99.90;;;;;;5052873;28;20362;-75
2022/10/18 02:03:03;;;;;;;24.10;17.45;;;14.70;99.90;;;;;;5066940;28;20025;-76
2022/10/18 02:05:39;;;;;;;33.08;18.70;;;14.70;99.90;;;;;;5067759;28;20028;-75
2022/10/18 02:08:19;;;;;;;31.00;18.40;;;14.70;99.90;;;;;;5063278;28;20136;-75
2022/10/18 02:10:49;;;;;;;25.17;17.23;;;14.80;99.90;;;;;;5062580;28;20029;-76
2022/10/18 02:13:19;;;;;;;31.85;18.23;;;14.80;99.90;;;;;;5067203;28;20032;-76
2022/10/18 02:15:50;;;;;;;29.75;18.48;;;14.80;99.90;;;;;;5062224;28;20027;-76
2022/10/18 02:18:24;;;;;;;49.50;19.70;;;14.80;99.90;;;;;;5061007;28;20477;-75
2022/10/18 02:20:50;;;;;;;45.80;18.08;;;14.80;99.90;;;;;;5058099;28;20029;-75
2022/10/18 02:23:21;;;;;;;47.58;17.67;;;14.80;99.90;;;;;;5057460;28;20038;-75
2022/10/18 02:25:46;;;;;;;134.18;23.45;;;14.80;99.90;;;;;;5056297;28;20397;-75
2022/10/18 02:28:12;;;;;;;73.95;19.95;;;14.80;99.90;;;;;;5068853;28;20027;-75
2022/10/18 02:31:05;;;;;;;87.05;21.25;;;14.80;99.90;;;;;;5069044;28;20049;-76
2022/10/18 02:33:51;;;;;;;;;;;14.80;99.90;;;;;;5060629;28;20563;-75
2022/10/18 02:36:33;;;;;;;150.50;22.13;;;14.80;99.90;;;;;;5051568;28;19959;-75
2022/10/18 02:39:05;;;;;;;146.23;23.08;;;14.80;99.90;;;;;;5058737;28;20120;-75
2022/10/18 02:41:31;;;;;;;156.20;23.27;;;14.80;99.90;;;;;;5057650;28;20110;-75
2022/10/18 02:43:56;;;;;;;177.20;25.05;;;14.80;99.90;;;;;;5056175;28;20028;-75
2022/10/18 02:46:22;;;;;;;187.30;27.23;;;14.80;99.90;;;;;;5058090;28;20037;-74
2022/10/18 02:48:48;;;;;;;152.68;23.80;;;14.80;99.90;;;;;;5050805;28;20380;-76
2022/10/18 02:51:14;;;;;;;138.15;25.73;;;14.80;99.90;;;;;;5060759;28;20033;-77
2022/10/18 02:53:40;;;;;;;111.10;22.38;;;14.80;99.90;;;;;;5060991;28;20020;-75
2022/10/18 02:56:05;;;;;;;131.93;25.90;;;14.80;99.90;;;;;;5059407;28;20037;-76
2022/10/18 02:58:31;;;;;;;129.65;26.20;;;14.80;99.90;;;;;;5062621;28;20029;-75
2022/10/18 03:00:56;;;;;;;75.68;22.88;;;14.80;99.90;;;;;;5061908;28;20021;-75
2022/10/18 03:03:22;;;;;;;100.57;23.42;;;14.80;99.90;;;;;;5062829;28;20109;-76
2022/10/18 03:05:49;;;;;;;118.35;25.35;;;14.80;99.90;;;;;;5060992;28;20021;-76
2022/10/18 03:08:14;;;;;;;97.30;23.92;;;14.80;99.90;;;;;;5053007;28;20626;-76
2022/10/18 03:10:43;;;;;;;119.43;25.85;;;14.80;99.90;;;;;;5062310;28;20040;-75
2022/10/18 03:13:08;;;;;;;124.05;27.73;;;14.80;99.90;;;;;;5065161;28;20124;-76
2022/10/18 03:15:34;;;;;;;68.15;23.92;;;14.70;99.90;;;;;;5063582;28;20127;-75
2022/10/18 03:17:59;;;;;;;101.07;26.23;;;14.80;99.90;;;;;;5057171;28;20033;-75
2022/10/18 03:20:25;;;;;;;99.93;26.77;;;14.80;99.90;;;;;;5051817;28;20036;-76
2022/10/18 03:22:50;;;;;;;67.63;24.98;;;14.80;99.90;;;;;;5061176;28;20442;-76
2022/10/18 03:25:16;;;;;;;187.13;31.38;;;14.70;99.90;;;;;;5065389;28;20031;-75
2022/10/18 03:27:41;;;;;;;51.25;22.38;;;14.80;99.90;;;;;;5069705;28;20373;-75
2022/10/18 03:30:08;;;;;;;102.57;26.73;;;14.80;99.90;;;;;;5066209;28;20151;-75
2022/10/18 03:32:33;;;;;;;71.63;24.88;;;14.70;99.90;;;;;;5057300;28;20048;-75
2022/10/18 03:34:59;;;;;;;84.68;24.98;;;14.70;99.90;;;;;;5064812;28;20021;-75
2022/10/18 03:37:25;;;;;;;93.72;26.23;;;14.70;99.90;;;;;;5055793;28;20040;-75
2022/10/18 03:39:50;;;;;;;89.13;27.08;;;14.70;99.90;;;;;;5063056;28;20035;-75
2022/10/18 03:42:16;;;;;;;76.63;22.80;;;14.70;99.90;;;;;;5064855;28;20511;-75
2022/10/18 03:44:41;;;;;;;103.47;25.42;;;14.60;99.90;;;;;;5059273;28;20028;-75
2022/10/18 03:47:07;;;;;;;86.78;24.80;;;14.60;99.90;;;;;;5059236;28;20041;-75
2022/10/18 03:49:33;;;;;;;135.90;30.48;;;14.60;99.90;;;;;;5061182;28;20060;-75
2022/10/18 03:51:58;;;;;;;133.73;28.48;;;14.70;99.90;;;;;;5065760;28;20574;-75
2022/10/18 03:54:24;;;;;;;206.20;34.63;;;14.60;99.90;;;;;;5063016;28;20025;-75
2022/10/18 03:56:49;;;;;;;150.68;29.65;;;14.60;99.90;;;;;;5058694;28;20020;-75
2022/10/18 03:59:16;;;;;;;182.75;31.40;;;14.60;99.90;;;;;;5063037;28;20017;-75
2022/10/18 04:01:41;;;;;;;166.07;29.55;;;14.60;99.90;;;;;;5068411;28;20094;-75
2022/10/18 04:04:07;;;;;;;121.60;28.10;;;14.60;99.90;;;;;;5065422;28;20033;-76
2022/10/18 04:06:33;;;;;;;200.23;32.83;;;14.60;99.90;;;;;;5069044;28;20351;-75
2022/10/18 04:08:58;;;;;;;219.88;33.20;;;14.60;99.90;;;;;;5065818;28;20029;-75
2022/10/18 04:11:24;;;;;;;150.50;30.67;;;14.60;99.90;;;;;;5060831;28;20033;-75
2022/10/18 04:13:49;;;;;;;101.00;26.88;;;14.60;99.90;;;;;;5063020;28;20387;-75
2022/10/18 04:16:15;;;;;;;121.65;28.70;;;14.60;99.90;;;;;;5071032;28;20033;-75
2022/10/18 04:18:40;;;;;;;160.18;31.45;;;14.60;99.90;;;;;;5060447;28;20029;-75
2022/10/18 04:21:06;;;;;;;129.15;25.45;;;14.60;99.90;;;;;;5060669;28;20366;-75
2022/10/18 04:23:31;;;;;;;112.47;27.67;;;14.60;99.90;;;;;;5062499;28;20017;-75
2022/10/18 04:25:57;;;;;;;116.03;27.90;;;14.60;99.90;;;;;;5068539;28;20032;-75
2022/10/18 04:28:22;;;;;;;131.23;29.52;;;14.60;99.90;;;;;;5073300;28;20027;-75
2022/10/18 04:30:51;;;;;;;200.48;31.85;;;14.60;99.90;;;;;;5067520;28;20486;-75
2022/10/18 04:33:18;;;;;;;155.07;32.05;;;14.60;99.90;;;;;;5053413;28;20045;-75
2022/10/18 04:35:43;;;;;;;122.25;28.40;;;14.60;99.90;;;;;;5063671;28;20037;-75
2022/10/18 04:38:09;;;;;;;100.18;27.70;;;14.60;99.90;;;;;;5056028;28;20178;-75
2022/10/18 04:40:35;;;;;;;183.15;35.30;;;14.50;99.90;;;;;;5040543;28;20029;-75
2022/10/18 04:43:01;;;;;;;95.30;26.17;;;14.50;99.90;;;;;;5057653;28;20021;-75
2022/10/18 04:45:26;;;;;;;60.88;25.02;;;14.60;99.90;;;;;;5063033;28;20408;-75
2022/10/18 04:47:52;;;;;;;120.75;30.80;;;14.50;99.90;;;;;;5065901;28;20476;-75
2022/10/18 04:50:17;;;;;;;100.88;28.45;;;14.50;99.90;;;;;;5056934;28;20032;-76
2022/10/18 04:52:43;;;;;;;184.20;35.13;;;14.60;99.90;;;;;;5071902;28;20040;-75
2022/10/18 04:55:08;;;;;;;123.00;29.73;;;14.60;99.90;;;;;;5062058;28;20025;-75
2022/10/18 04:57:34;;;;;;;89.38;26.27;;;14.50;99.90;;;;;;5059377;28;20089;-75
2022/10/18 04:59:59;;;;;;;80.93;28.67;;;14.50;99.90;;;;;;5055408;28;20024;-75
2022/10/18 05:02:25;;;;;;;62.90;27.10;;;14.50;99.90;;;;;;5068192;28;20377;-75
2022/10/18 05:04:51;;;;;;;115.90;29.42;;;14.50;99.90;;;;;;5070850;28;20031;-77
2022/10/18 05:07:16;;;;;;;136.95;28.85;;;14.50;99.90;;;;;;5057162;28;20098;-76
2022/10/18 05:09:42;;;;;;;91.70;27.17;;;14.40;99.90;;;;;;5068689;28;20025;-75
2022/10/18 05:12:07;;;;;;;64.00;24.55;;;14.40;99.90;;;;;;5061408;28;20044;-76
2022/10/18 05:14:33;;;;;;;126.57;28.77;;;14.40;99.90;;;;;;5059297;28;20037;-76
2022/10/18 05:16:58;;;;;;;48.33;25.42;;;14.30;99.90;;;;;;5071670;28;20036;-76
2022/10/18 05:19:24;;;;;;;63.47;24.95;;;14.20;99.90;;;;;;5068160;28;20020;-77
2022/10/18 05:21:50;;;;;;;57.28;24.83;;;14.20;99.90;;;;;;5061903;28;20024;-76
2022/10/18 05:24:15;;;;;;;64.18;26.98;;;14.30;99.90;;;;;;5066380;28;20459;-75
2022/10/18 05:26:41;;;;;;;87.13;26.67;;;14.20;99.90;;;;;;5061919;28;20112;-75
2022/10/18 05:29:06;;;;;;;49.15;23.77;;;14.30;99.90;;;;;;5061743;28;20025;-76
2022/10/18 05:31:32;;;;;;;77.47;23.40;;;14.20;99.90;;;;;;5060737;28;20099;-76
2022/10/18 05:33:57;;;;;;;112.72;24.38;;;14.20;99.90;;;;;;5062862;28;20039;-76
2022/10/18 05:36:24;;;;;;;88.82;24.20;;;14.20;99.90;;;;;;5058556;28;20791;-76
2022/10/18 05:38:51;;;;;;;72.88;23.88;;;14.20;99.90;;;;;;5060148;28;20554;-76
2022/10/18 05:41:17;;;;;;;85.75;25.42;;;14.10;99.90;;;;;;5061959;28;20079;-76
2022/10/18 05:43:42;;;;;;;107.82;27.05;;;14.10;99.90;;;;;;5060224;28;20045;-76
2022/10/18 05:46:09;;;;;;;64.57;23.98;;;14.20;99.90;;;;;;5066335;28;20098;-75
2022/10/18 05:48:34;;;;;;;70.47;25.20;;;14.10;99.90;;;;;;5065093;28;20125;-76
2022/10/18 05:51:00;;;;;;;50.78;23.67;;;14.10;99.90;;;;;;5057958;28;20503;-77
2022/10/18 05:53:26;;;;;;;60.72;23.52;;;14.10;99.90;;;;;;5065845;28;20060;-77
2022/10/18 05:55:52;;;;;;;91.68;25.88;;;14.10;99.90;;;;;;5066225;28;20036;-74
2022/10/18 05:58:18;;;;;;;127.35;27.65;;;14.10;99.90;;;;;;5064010;28;20132;-74
2022/10/18 06:00:43;;;;;;;57.55;22.77;;;14.00;99.90;;;;;;5059057;28;20029;-77
2022/10/18 06:03:09;;;;;;;70.65;24.70;;;14.00;99.90;;;;;;5068813;28;20040;-76
2022/10/18 06:05:34;;;;;;;111.03;25.08;;;14.00;99.90;;;;;;5068370;28;21023;-76
2022/10/18 06:08:00;;;;;;;64.80;23.25;;;14.00;99.90;;;;;;5060778;28;20028;-76
2022/10/18 06:10:25;;;;;;;94.18;25.60;;;13.90;99.90;;;;;;5065908;28;20154;-76
2022/10/18 06:12:51;;;;;;;99.30;23.08;;;13.90;99.90;;;;;;5067561;28;20123;-76
2022/10/18 06:15:16;;;;;;;65.65;22.88;;;13.90;99.90;;;;;;5062138;28;20025;-76
2022/10/18 06:17:42;;;;;;;58.67;22.63;;;13.90;99.90;;;;;;5058561;28;20361;-76
2022/10/18 06:20:08;;;;;;;68.80;24.80;;;13.90;99.90;;;;;;5067100;28;20031;-76
2022/10/18 06:22:33;;;;;;;129.18;26.50;;;13.90;99.90;;;;;;5059226;28;20086;-74
2022/10/18 06:24:59;;;;;;;68.55;23.50;;;13.90;99.90;;;;;;5059942;28;20390;-75
2022/10/18 06:27:24;;;;;;;116.00;24.67;;;13.90;99.90;;;;;;5058717;28;20570;-72
2022/10/18 06:29:50;;;;;;;88.53;24.55;;;13.90;99.90;;;;;;5064038;28;20171;-76
2022/10/18 06:32:16;;;;;;;105.18;25.05;;;13.80;99.90;;;;;;5064774;28;20046;-76
2022/10/18 06:34:41;;;;;;;95.70;21.92;;;13.90;99.90;;;;;;5063661;28;20034;-76
2022/10/18 06:37:08;;;;;;;127.93;23.83;;;13.80;99.90;;;;;;5058511;28;20373;-76
2022/10/18 06:39:34;;;;;;;98.65;23.08;;;13.80;99.90;;;;;;5056576;28;20085;-78
2022/10/18 06:41:59;;;;;;;128.07;23.73;;;13.80;99.90;;;;;;5063639;28;20435;-77
2022/10/18 06:44:25;;;;;;;84.75;21.48;;;13.70;99.90;;;;;;5060210;28;20109;-78
2022/10/18 06:46:52;;;;;;;119.70;22.98;;;13.70;99.90;;;;;;5058207;28;20786;-76
2022/10/18 06:49:18;;;;;;;92.78;20.95;;;13.70;99.90;;;;;;5060407;28;20032;-76
2022/10/18 06:51:44;;;;;;;120.32;23.05;;;13.70;99.90;;;;;;5060900;28;20473;-77
2022/10/18 06:54:10;;;;;;;81.55;21.02;;;13.70;99.90;;;;;;5060169;28;20021;-77
2022/10/18 06:56:36;;;;;;;132.45;23.05;;;13.70;99.90;;;;;;5062780;28;20024;-78
2022/10/18 06:59:02;;;;;;;88.80;20.73;;;13.70;99.90;;;;;;5057801;28;20016;-77
2022/10/18 07:01:28;;;;;;;86.78;20.80;;;13.70;99.90;;;;;;5061104;28;20071;-78
2022/10/18 07:03:54;;;;;;;75.43;19.50;;;13.70;99.90;;;;;;5062028;28;20028;-76
2022/10/18 07:06:21;;;;;;;74.55;18.75;;;13.60;99.90;;;;;;5058733;28;20035;-77
2022/10/18 07:08:49;;;;;;;105.78;20.67;;;13.70;99.90;;;;;;5052838;28;20098;-75
2022/10/18 07:11:17;;;;;;;60.78;18.98;;;13.60;99.90;;;;;;5056927;28;20037;-77
2022/10/18 07:13:43;;;;;;;53.85;18.63;;;13.70;99.90;;;;;;5061220;28;20328;-77
2022/10/18 07:16:13;;;;;;;50.97;18.85;;;13.60;99.90;;;;;;5055735;28;20099;-78
2022/10/18 07:18:42;;;;;;;69.70;20.00;;;13.60;99.90;;;;;;5060266;28;20035;-77
2022/10/18 07:21:09;;;;;;;51.25;18.90;;;13.60;99.90;;;;;;5054483;28;20056;-77
2022/10/18 07:23:38;;;;;;;51.30;16.88;;;13.70;99.90;;;;;;5057478;28;20485;-77
2022/10/18 07:26:24;;;;;;;42.83;17.88;;;13.70;99.90;;;;;;5054593;28;20028;-77
2022/10/18 07:28:54;;;;;;;29.52;16.45;;;13.80;99.90;;;;;;5060400;28;20476;-77
2022/10/18 07:31:20;;;;;;;88.13;17.58;;;13.80;99.90;;;;;;5059206;28;20040;-78
2022/10/18 07:33:45;;;;;;;49.70;17.73;;;13.80;99.90;;;;;;5055841;28;20556;-78
2022/10/18 07:36:12;;;;;;;26.90;16.08;;;13.80;99.90;;;;;;5055428;28;20103;-78
2022/10/18 07:38:38;;;;;;;59.58;16.98;;;13.90;99.90;;;;;;5055222;28;20491;-77
2022/10/18 07:41:05;;;;;;;40.65;17.23;;;13.90;99.90;;;;;;5061392;28;20056;-78
2022/10/18 07:43:31;;;;;;;62.40;17.48;;;13.90;99.90;;;;;;5056403;28;20029;-77
2022/10/18 07:46:00;;;;;;;54.97;15.35;;;13.90;99.90;;;;;;5054166;28;20435;-77
2022/10/18 07:48:26;;;;;;;45.15;17.30;;;14.00;99.90;;;;;;5060910;28;20032;-77
2022/10/18 07:50:52;;;;;;;48.33;16.63;;;13.90;99.90;;;;;;5054524;28;20036;-78
2022/10/18 07:53:17;;;;;;;66.97;17.02;;;14.00;99.90;;;;;;5056181;28;20044;-78
2022/10/18 07:55:43;;;;;;;47.38;16.80;;;14.00;99.90;;;;;;5063124;28;20020;-77
2022/10/18 07:58:09;;;;;;;50.38;17.83;;;14.00;99.90;;;;;;5060615;28;20032;-78
2022/10/18 08:00:35;;;;;;;52.00;18.30;;;14.00;99.90;;;;;;5054046;28;22115;-78
2022/10/18 08:03:00;;;;;;;88.03;21.55;;;14.00;99.90;;;;;;5060087;28;20123;-77
2022/10/18 08:05:27;;;;;;;41.35;18.38;;;14.00;99.90;;;;;;5057304;28;20493;-78
2022/10/18 08:07:53;;;;;;;30.75;18.33;;;14.00;99.90;;;;;;5066688;28;20035;-77
2022/10/18 08:10:19;;;;;;;32.28;19.27;;;14.10;99.90;;;;;;5056446;28;20021;-78
2022/10/18 08:12:45;;;;;;;38.53;19.60;;;14.10;99.90;;;;;;5059749;28;20212;-78
2022/10/18 08:15:11;;;;;;;36.55;17.85;;;14.10;99.90;;;;;;5059406;28;20104;-78
2022/10/18 08:17:36;;;;;;;37.83;19.77;;;14.10;99.90;;;;;;5056368;28;20021;-77
2022/10/18 08:20:02;;;;;;;37.50;19.45;;;14.00;99.90;;;;;;5057130;28;20542;-78
2022/10/18 08:22:28;;;;;;;29.02;19.42;;;14.00;99.90;;;;;;5054670;28;20025;-78
2022/10/18 08:24:53;;;;;;;38.90;19.17;;;14.00;99.90;;;;;;5058113;28;20091;-78
2022/10/18 08:27:19;;;;;;;33.72;20.15;;;13.90;99.90;;;;;;5060234;28;20364;-78
2022/10/18 08:29:44;;;;;;;44.25;21.33;;;14.00;99.90;;;;;;5056538;28;20051;-79
2022/10/18 08:32:10;;;;;;;33.78;20.05;;;14.00;99.90;;;;;;5058682;28;20436;-78
2022/10/18 08:34:35;;;;;;;30.13;19.92;;;14.10;99.90;;;;;;5053810;28;20644;-75
2022/10/18 08:37:02;;;;;;;29.23;18.67;;;14.10;99.90;;;;;;5059180;28;20024;-76
2022/10/18 08:39:28;;;;;;;38.72;20.88;;;14.20;99.90;;;;;;5061320;28;20029;-77
2022/10/18 08:42:21;;;;;;;37.33;21.08;;;14.30;99.90;;;;;;5060933;28;20044;-78
2022/10/18 08:44:49;;;;;;;62.38;21.83;;;14.50;99.90;;;;;;5058108;28;20033;-77
2022/10/18 08:47:35;;;;;;;41.65;22.40;;;14.60;99.90;;;;;;5062616;28;20048;-78
2022/10/18 08:50:05;;;;;;;32.35;21.38;;;14.80;99.90;;;;;;5061689;28;20051;-77
2022/10/18 08:52:42;;;;;;;50.92;22.88;;;14.90;99.90;;;;;;5056898;28;20090;-77
2022/10/18 08:55:22;;;;;;;35.17;21.52;;;15.10;99.90;;;;;;5061253;28;20025;-77
2022/10/18 08:57:49;;;;;;;36.05;20.38;;;15.20;99.90;;;;;;5061676;28;20036;-77
2022/10/18 09:00:24;;;;;;;37.50;21.50;;;15.30;99.90;;;;;;5061827;28;20025;-77
2022/10/18 09:03:10;;;;;;;31.83;21.08;;;15.30;99.90;;;;;;5062289;28;20435;-77
2022/10/18 09:05:39;;;;;;;31.52;20.08;;;15.20;99.90;;;;;;5057070;28;20082;-77
2022/10/18 09:08:48;;;;;;;36.63;19.75;;;15.20;99.90;;;;;;5057275;28;20508;-77
2022/10/18 09:11:25;;;;;;;32.25;18.63;;;15.10;99.90;;;;;;5061613;28;20028;-76
2022/10/18 09:14:32;;;;;;;31.20;18.88;;;15.00;99.90;;;;;;5068098;28;20046;-77
2022/10/18 09:17:13;;;;;;;33.35;18.10;;;14.90;99.90;;;;;;5045020;28;20049;-76
2022/10/18 09:20:18;;;;;;;32.20;18.67;;;14.90;99.90;;;;;;5060283;28;20423;-76
2022/10/18 09:23:11;;;;;;;29.80;19.20;;;15.00;99.90;;;;;;5060851;28;20070;-76
2022/10/18 09:26:09;;;;;;;28.77;19.25;;;15.00;99.90;;;;;;5057621;28;20111;-77
2022/10/18 09:28:57;;;;;;;28.42;17.40;;;15.10;99.90;;;;;;5047692;28;20067;-76
2022/10/18 09:31:48;;;;;;;31.98;18.92;;;15.20;99.90;;;;;;5060340;28;20033;-77
2022/10/18 09:34:28;;;;;;;29.42;15.48;;;15.30;99.90;;;;;;5062918;28;20495;-76
2022/10/18 09:36:54;;;;;;;29.85;15.68;;;15.30;99.90;;;;;;5056980;28;20035;-76
2022/10/18 09:39:29;;;;;;;29.00;14.43;;;15.40;99.90;;;;;;5064519;28;20035;-77
2022/10/18 09:42:06;;;;;;;24.05;13.85;;;15.50;99.90;;;;;;5059534;28;20051;-77
2022/10/18 09:44:38;;;;;;;25.58;13.50;;;15.50;99.90;;;;;;5059101;28;20050;-78
2022/10/18 09:47:07;;;;;;;27.60;13.63;;;15.60;99.90;;;;;;5061240;28;20056;-77
2022/10/18 09:49:40;;;;;;;27.55;14.80;;;15.60;99.90;;;;;;5059001;28;20095;-77
2022/10/18 09:52:11;;;;;;;24.58;14.02;;;15.70;99.90;;;;;;5063607;28;21082;-78
2022/10/18 09:54:43;;;;;;;26.65;14.60;;;15.70;99.90;;;;;;5059931;28;20049;-77
2022/10/18 09:57:13;;;;;;;28.20;15.32;;;15.80;99.90;;;;;;5061578;28;20039;-77
2022/10/18 09:59:40;;;;;;;26.45;12.23;;;15.90;99.90;;;;;;5060497;28;20025;-77
2022/10/18 10:02:11;;;;;;;25.33;10.25;;;15.90;99.90;;;;;;5056789;28;20020;-77
2022/10/18 10:04:37;;;;;;;24.85;11.43;;;15.90;99.90;;;;;;5054407;28;20048;-77
2022/10/18 10:07:10;;;;;;;23.25;10.80;;;16.00;99.90;;;;;;5059855;28;20457;-77
2022/10/18 10:09:42;;;;;;;26.77;9.63;;;16.00;99.90;;;;;;5057805;28;20365;-78
2022/10/18 10:12:31;;;;;;;16.60;8.50;;;16.10;99.90;;;;;;5054300;28;20045;-77
2022/10/18 10:15:26;;;;;;;17.55;8.68;;;16.10;99.90;;;;;;5054143;28;20044;-77
2022/10/18 10:18:02;;;;;;;16.50;5.18;;;16.20;99.90;;;;;;5055327;28;20044;-77
2022/10/18 10:20:41;;;;;;;12.95;5.13;;;16.30;99.90;;;;;;5056814;28;20016;-76
2022/10/18 10:23:15;;;;;;;15.23;6.03;;;16.30;99.90;;;;;;5057149;28;20025;-77
2022/10/18 10:25:42;;;;;;;13.05;4.85;;;16.40;99.90;;;;;;5054090;28;20470;-77
2022/10/18 10:28:15;;;;;;;12.00;5.28;;;16.40;99.90;;;;;;5062430;28;20376;-78
2022/10/18 10:30:41;;;;;;;15.95;5.03;;;16.40;99.90;;;;;;5061469;28;20108;-77
2022/10/18 10:33:36;;;;;;;12.25;4.13;;;16.50;99.90;;;;;;5062255;28;20044;-78
2022/10/18 10:36:05;;;;;;;13.02;2.35;;;16.60;99.90;;;;;;5059771;28;20025;-77
2022/10/18 10:38:31;;;;;;;8.70;2.53;;;16.60;99.90;;;;;;5062332;28;20522;-78
2022/10/18 10:40:57;;;;;;;12.13;2.38;;;16.60;99.90;;;;;;5053151;28;20025;-78
2022/10/18 10:43:35;;;;;;;13.25;2.33;;;16.60;99.90;;;;;;5064185;28;20040;-77
2022/10/18 10:46:06;;;;;;;8.15;2.15;;;16.80;99.90;;;;;;5054845;28;20477;-78
2022/10/18 10:48:39;;;;;;;11.02;2.45;;;16.80;99.90;;;;;;5060211;28;20106;-78
2022/10/18 10:51:07;;;;;;;13.70;2.40;;;16.80;99.90;;;;;;5060759;28;20028;-77
2022/10/18 10:53:38;;;;;;;7.05;1.70;;;16.90;99.90;;;;;;5052380;28;20036;-77
2022/10/18 10:56:06;;;;;;;5.95;1.63;;;16.90;99.90;;;;;;5054389;28;20028;-78
2022/10/18 10:58:39;;;;;;;7.32;1.00;;;17.00;99.90;;;;;;5063522;28;20025;-78
2022/10/18 11:01:30;;;;;;;9.13;0.80;;;17.00;99.90;;;;;;5062398;28;20036;-77
2022/10/18 11:04:01;;;;;;;6.82;0.63;;;17.10;99.90;;;;;;5065766;28;20024;-78
2022/10/18 11:06:29;;;;;;;5.97;0.60;;;17.10;99.90;;;;;;5060418;28;20357;-77
2022/10/18 11:08:58;;;;;;;6.47;0.73;;;17.10;99.90;;;;;;5061026;28;20143;-77
2022/10/18 11:11:30;;;;;;;9.85;0.75;;;17.20;99.90;;;;;;5055735;28;20078;-78
2022/10/18 11:14:02;;;;;;;10.75;1.35;;;17.20;99.90;;;;;;5044770;28;20105;-77
2022/10/18 11:16:50;;;;;;;5.22;0.50;;;17.40;99.90;;;;;;5058965;28;20028;-78
2022/10/18 11:19:48;;;;;;;6.55;0.88;;;17.40;99.90;;;;;;5061741;28;20112;-78
2022/10/18 11:22:20;;;;;;;6.32;0.80;;;17.50;99.90;;;;;;5037637;28;20098;-77
2022/10/18 11:24:47;;;;;;;5.10;0.70;;;17.50;99.90;;;;;;5062026;28;20044;-77
2022/10/18 11:27:26;;;;;;;10.45;1.58;;;17.50;99.90;;;;;;5055204;28;20064;-77
2022/10/18 11:30:13;;;;;;;10.32;1.02;;;17.50;99.90;;;;;;5066541;28;20049;-77
2022/10/18 11:32:58;;;;;;;5.85;1.10;;;17.50;99.90;;;;;;5063937;28;20115;-77
2022/10/18 11:35:34;;;;;;;7.57;0.88;;;17.60;99.90;;;;;;5055593;28;20032;-78
2022/10/18 11:38:16;;;;;;;8.80;0.93;;;17.60;99.90;;;;;;5066402;28;20429;-77
2022/10/18 11:40:58;;;;;;;7.82;0.60;;;17.70;99.90;;;;;;5060579;28;20132;-77
2022/10/18 11:43:52;;;;;;;10.20;1.30;;;17.70;99.90;;;;;;5058884;28;20033;-78
2022/10/18 11:46:35;;;;;;;6.03;0.75;;;17.80;99.90;;;;;;5061093;28;20109;-78
2022/10/18 11:49:32;;;;;;;11.65;1.30;;;17.70;99.90;;;;;;5058562;28;20060;-78
2022/10/18 11:52:06;;;;;;;5.68;0.80;;;17.90;99.90;;;;;;5063048;28;20473;-77
2022/10/18 11:54:40;;;;;;;9.90;0.60;;;17.90;99.90;;;;;;5061017;28;20021;-78
2022/10/18 11:57:28;;;;;;;5.13;0.30;;;17.90;99.90;;;;;;5072111;28;20044;-77
2022/10/18 12:00:22;;;;;;;6.55;0.60;;;17.90;99.90;;;;;;5063505;28;20507;-77
2022/10/18 12:03:00;;;;;;;8.43;0.57;;;18.00;99.90;;;;;;5057108;28;20059;-77
2022/10/18 12:05:28;;;;;;;5.75;0.50;;;18.00;99.90;;;;;;5074425;28;20029;-77
2022/10/18 12:08:13;;;;;;;2.15;0.40;;;18.00;99.90;;;;;;5061590;28;20486;-77
2022/10/18 12:10:43;;;;;;;5.75;0.60;;;18.00;99.90;;;;;;5063769;28;20024;-77
2022/10/18 12:13:17;;;;;;;8.40;0.50;;;18.00;99.90;;;;;;5053305;28;20044;-77
2022/10/18 12:15:43;;;;;;;9.27;1.05;;;18.00;99.90;;;;;;5055764;28;20078;-77
2022/10/18 12:18:22;;;;;;;5.68;0.70;;;18.10;99.90;;;;;;5057567;28;20113;-77
2022/10/18 12:20:51;;;;;;;9.60;0.55;;;18.20;99.90;;;;;;5069589;28;20478;-77
2022/10/18 12:23:35;;;;;;;8.00;0.63;;;18.20;99.90;;;;;;5072322;28;20024;-77
2022/10/18 12:26:08;;;;;;;4.90;0.45;;;18.30;99.90;;;;;;5064118;28;20033;-77
2022/10/18 12:29:01;;;;;;;3.53;0.30;;;18.30;99.90;;;;;;5064073;28;20020;-76
2022/10/18 12:31:43;;;;;;;6.20;0.50;;;18.30;99.90;;;;;;5065474;28;20037;-77
2022/10/18 12:34:42;;;;;;;6.00;0.40;;;18.40;99.90;;;;;;5068602;28;20029;-77
2022/10/18 12:37:38;;;;;;;7.18;0.40;;;18.40;99.90;;;;;;5066902;28;20103;-76
2022/10/18 12:40:09;;;;;;;4.95;0.40;;;18.40;99.90;;;;;;5061599;28;20578;-77
2022/10/18 12:42:46;;;;;;;9.98;0.70;;;18.50;99.90;;;;;;5067736;28;20028;-77
2022/10/18 12:45:12;;;;;;;7.63;0.40;;;18.60;99.90;;;;;;5064196;28;20029;-76
2022/10/18 12:47:39;;;;;;;3.20;0.40;;;18.70;99.90;;;;;;5057765;28;20082;-77